Time;durP1;ratioP1;P1;durP2;ratioP2;P2;SDS_P1;SDS_P2;PMS_P1;PMS_P2;Temp;Humidity;BMP_temperature;BMP_pressure;BME280_temperature;BME280_humidity;BME280_pressure;Samples;Min_cycle;Max_cycle;Signal;HPM_P1;HPM_P2
2022/08/09 00:00:05;;;;;;;;;;;;;;;;;;2210173;67;1292;-56
2022/08/09 00:02:41;;;;;;;;;;;;;;;;;;2208537;59;1655;-54
2022/08/09 00:05:14;;;;;;;;;;;;;;;;;;2208549;59;1929;-54
2022/08/09 00:07:47;;;;;;;;;;;;;;;;;;2209256;67;1128;-53
2022/08/09 00:10:21;;;;;;;;;;;;;;;;;;2207552;67;1292;-53
2022/08/09 00:12:54;;;;;;;;;;;;;;;;;;2208621;59;1325;-54
2022/08/09 00:15:27;;;;;;;;;;;;;;;;;;2209141;59;1433;-54
2022/08/09 00:18:03;;;;;;;;;;;;;;;;;;2209514;67;1282;-53
2022/08/09 00:20:36;;;;;;;;;;;;;;;;;;2208647;59;1228;-54
2022/08/09 00:23:09;;;;;;;;;;;;;;;;;;2209801;67;1246;-53
2022/08/09 00:25:42;;;;;;;;;;;;;;;;;;2209881;67;1902;-54
2022/08/09 00:28:15;;;;;;;;;;;;;;;;;;2210759;67;1274;-53
2022/08/09 00:30:49;;;;;;;;;;;;;;;;;;2209059;67;1237;-54
2022/08/09 00:33:25;;;;;;;;;;;;;;;;;;2210292;67;1340;-53
2022/08/09 00:35:59;;;;;;;;;;;;;;;;;;2209415;59;1444;-54
2022/08/09 00:38:32;;;;;;;;;;;;;;;;;;2210252;67;1108;-54
2022/08/09 00:41:06;;;;;;;;;;;;;;;;;;2209187;67;1310;-54
2022/08/09 00:43:39;;;;;;;;;;;;;;;;;;2209972;67;1622;-54
2022/08/09 00:46:13;;;;;;;;;;;;;;;;;;2207763;67;1932;-54
2022/08/09 00:48:49;;;;;;;;;;;;;;;;;;2208470;67;1236;-53
2022/08/09 00:51:22;;;;;;;;;;;;;;;;;;2208179;67;1235;-54
2022/08/09 00:53:55;;;;;;;;;;;;;;;;;;2208338;67;1283;-53
2022/08/09 00:56:29;;;;;;;;;;;;;;;;;;2208885;67;1166;-54
2022/08/09 00:59:02;;;;;;;;;;;;;;;;;;2207828;67;1251;-54
2022/08/09 01:01:37;;;;;;;;;;;;;;;;;;2207902;59;2154;-56
2022/08/09 01:04:14;;;;;;;;;;;;;;;;;;2208752;59;1375;-53
2022/08/09 01:06:50;;;;;;;;;;;;;;;;;;2208321;59;1941;-53
2022/08/09 01:09:26;;;;;;;;;;;;;;;;;;2208121;67;1261;-53
2022/08/09 01:12:01;;;;;;;;;;;;;;;;;;2207977;67;1207;-54
2022/08/09 01:14:36;;;;;;;;;;;;;;;;;;2208989;67;1056;-54
2022/08/09 01:17:10;;;;;;;;;;;;;;;;;;2208841;59;1378;-55
2022/08/09 01:19:52;;;;;;;;;;;;;;;;;;2208544;67;1286;-55
2022/08/09 01:22:56;;;;;;;;;;;;;;;;;;2208860;59;1148;-54
2022/08/09 01:25:35;;;;;;;;;;;;;;;;;;2208085;67;1922;-53
2022/08/09 01:28:12;;;;;;;;;;;;;;;;;;2207943;67;1136;-54
2022/08/09 01:30:46;;;;;;;;;;;;;;;;;;2208809;67;1252;-53
2022/08/09 01:33:20;;;;;;;;;;;;;;;;;;2207893;67;1159;-54
2022/08/09 01:35:56;;;;;;;;;;;;;;;;;;2208115;59;1409;-54
2022/08/09 01:38:31;;;;;;;;;;;;;;;;;;2207829;67;1173;-54
2022/08/09 01:41:07;;;;;;;;;;;;;;;;;;2208144;67;1241;-55
2022/08/09 01:43:46;;;;;;;;;;;;;;;;;;2208349;59;1397;-54
2022/08/09 01:46:20;;;;;;;;;;;;;;;;;;2207947;67;1987;-53
2022/08/09 01:48:54;;;;;;;;;;;;;;;;;;2208568;67;1068;-58
2022/08/09 01:51:28;;;;;;;;;;;;;;;;;;2207664;67;1289;-54
2022/08/09 01:54:02;;;;;;;;;;;;;;;;;;2208015;67;1238;-53
2022/08/09 01:56:37;;;;;;;;;;;;;;;;;;2208755;59;1122;-53
2022/08/09 01:59:15;;;;;;;;;;;;;;;;;;2207776;67;1246;-54
2022/08/09 02:01:50;;;;;;;;;;;;;;;;;;2209419;59;1611;-55
2022/08/09 02:04:24;;;;;;;;;;;;;;;;;;2208295;59;1496;-53
2022/08/09 02:07:14;;;;;;;;;;;;;;;;;;2208418;67;1906;-54
2022/08/09 02:09:50;;;;;;;;;;;;;;;;;;2208433;67;1201;-54
2022/08/09 02:12:25;;;;;;;;;;;;;;;;;;2208605;59;1223;-54
2022/08/09 02:15:03;;;;;;;;;;;;;;;;;;2207986;59;1330;-55
2022/08/09 02:17:37;;;;;;;;;;;;;;;;;;2208632;59;1281;-53
2022/08/09 02:20:11;;;;;;;;;;;;;;;;;;2208436;67;1240;-54
2022/08/09 02:22:50;;;;;;;;;;;;;;;;;;2207899;67;1137;-56
2022/08/09 02:25:24;;;;;;;;;;;;;;;;;;2207993;67;1175;-54
2022/08/09 02:28:01;;;;;;;;;;;;;;;;;;2207842;67;1944;-54
2022/08/09 02:30:39;;;;;;;;;;;;;;;;;;2208797;67;1229;-55
2022/08/09 02:33:12;;;;;;;;;;;;;;;;;;2208386;67;1239;-53
2022/08/09 02:35:46;;;;;;;;;;;;;;;;;;2208263;59;1384;-54
2022/08/09 02:38:22;;;;;;;;;;;;;;;;;;2207626;67;1315;-55
2022/08/09 02:40:57;;;;;;;;;;;;;;;;;;2208099;67;1294;-53
2022/08/09 02:43:33;;;;;;;;;;;;;;;;;;2207477;67;1633;-54
2022/08/09 02:46:10;;;;;;;;;;;;;;;;;;2207735;67;1927;-53
2022/08/09 02:48:45;;;;;;;;;;;;;;;;;;2209094;67;1122;-53
2022/08/09 02:51:19;;;;;;;;;;;;;;;;;;2208624;67;1263;-53
2022/08/09 02:53:56;;;;;;;;;;;;;;;;;;2208784;67;1265;-54
2022/08/09 02:56:29;;;;;;;;;;;;;;;;;;2209538;67;1256;-54
2022/08/09 02:59:03;;;;;;;;;;;;;;;;;;2208557;67;1270;-53
2022/08/09 03:01:40;;;;;;;;;;;;;;;;;;2207936;59;1524;-54
2022/08/09 03:04:15;;;;;;;;;;;;;;;;;;2208813;59;2532;-54
2022/08/09 03:06:49;;;;;;;;;;;;;;;;;;2208387;59;1924;-54
2022/08/09 03:09:23;;;;;;;;;;;;;;;;;;2207984;59;1595;-55
2022/08/09 03:11:56;;;;;;;;;;;;;;;;;;2207440;59;1692;-53
2022/08/09 03:14:30;;;;;;;;;;;;;;;;;;2210017;67;1057;-53
2022/08/09 03:17:06;;;;;;;;;;;;;;;;;;2208043;59;1455;-53
2022/08/09 03:19:42;;;;;;;;;;;;;;;;;;2208595;67;1256;-53
2022/08/09 03:22:16;;;;;;;;;;;;;;;;;;2207232;67;1124;-53
2022/08/09 03:24:49;;;;;;;;;;;;;;;;;;2207530;67;1154;-54
2022/08/09 03:27:23;;;;;;;;;;;;;;;;;;2207325;67;1904;-53
2022/08/09 03:29:57;;;;;;;;;;;;;;;;;;2207151;67;1228;-54
2022/08/09 03:32:35;;;;;;;;;;;;;;;;;;2207730;67;1247;-57
2022/08/09 03:35:10;;;;;;;;;;;;;;;;;;2207782;67;1220;-54
2022/08/09 03:37:43;;;;;;;;;;;;;;;;;;2207438;59;1555;-53
2022/08/09 03:40:17;;;;;;;;;;;;;;;;;;2206821;67;1258;-55
2022/08/09 03:42:50;;;;;;;;;;;;;;;;;;2208125;67;1224;-54
2022/08/09 03:45:23;;;;;;;;;;;;;;;;;;2207774;67;1254;-54
2022/08/09 03:47:59;;;;;;;;;;;;;;;;;;2207024;67;1930;-54
2022/08/09 03:50:33;;;;;;;;;;;;;;;;;;2207559;67;1135;-53
2022/08/09 03:53:08;;;;;;;;;;;;;;;;;;2207218;67;1132;-54
2022/08/09 03:55:41;;;;;;;;;;;;;;;;;;2207772;67;1087;-54
2022/08/09 03:58:14;;;;;;;;;;;;;;;;;;2208005;67;1255;-53
2022/08/09 04:00:48;;;;;;;;;;;;;;;;;;2207289;67;1184;-53
2022/08/09 04:03:25;;;;;;;;;;;;;;;;;;2207410;59;1731;-54
2022/08/09 04:05:59;;;;;;;;;;;;;;;;;;2207420;67;1247;-53
2022/08/09 04:08:32;;;;;;;;;;;;;;;;;;2208502;67;1920;-54
2022/08/09 04:11:05;;;;;;;;;;;;;;;;;;2207464;59;1315;-54
2022/08/09 04:13:38;;;;;;;;;;;;;;;;;;2208143;67;1104;-53
2022/08/09 04:16:11;;;;;;;;;;;;;;;;;;2208279;59;1424;-55
2022/08/09 04:18:47;;;;;;;;;;;;;;;;;;2207952;67;1116;-52
2022/08/09 04:21:21;;;;;;;;;;;;;;;;;;2207135;67;1230;-55
2022/08/09 04:23:54;;;;;;;;;;;;;;;;;;2207169;67;1199;-55
2022/08/09 04:26:27;;;;;;;;;;;;;;;;;;2207074;67;1197;-53
2022/08/09 04:29:00;;;;;;;;;;;;;;;;;;2208445;67;1941;-53
2022/08/09 04:31:34;;;;;;;;;;;;;;;;;;2207576;67;1265;-53
2022/08/09 04:34:09;;;;;;;;;;;;;;;;;;2208778;67;1254;-53
2022/08/09 04:36:43;;;;;;;;;;;;;;;;;;2208580;59;1381;-54
2022/08/09 04:39:16;;;;;;;;;;;;;;;;;;2207671;67;1234;-57
2022/08/09 04:41:49;;;;;;;;;;;;;;;;;;2208300;60;1218;-55
2022/08/09 04:44:22;;;;;;;;;;;;;;;;;;2207649;67;1195;-54
2022/08/09 04:46:56;;;;;;;;;;;;;;;;;;2207475;67;1937;-54
2022/08/09 04:49:36;;;;;;;;;;;;;;;;;;2207844;59;1227;-54
2022/08/09 04:52:09;;;;;;;;;;;;;;;;;;2209253;67;1203;-54
2022/08/09 04:54:42;;;;;;;;;;;;;;;;;;2206842;67;1239;-54
2022/08/09 04:57:15;;;;;;;;;;;;;;;;;;2207791;67;1315;-53
2022/08/09 04:59:49;;;;;;;;;;;;;;;;;;2208054;67;1481;-53
2022/08/09 05:02:22;;;;;;;;;;;;;;;;;;2207517;59;1640;-53
2022/08/09 05:04:59;;;;;;;;;;;;;;;;;;2208380;59;1334;-54
2022/08/09 05:07:32;;;;;;;;;;;;;;;;;;2207949;67;1929;-54
2022/08/09 05:10:07;;;;;;;;;;;;;;;;;;2207096;67;1124;-54
2022/08/09 05:12:40;;;;;;;;;;;;;;;;;;2208205;59;1260;-54
2022/08/09 05:15:13;;;;;;;;;;;;;;;;;;2207857;59;1476;-53
2022/08/09 05:17:46;;;;;;;;;;;;;;;;;;2207729;67;1192;-53
2022/08/09 05:20:24;;;;;;;;;;;;;;;;;;2207821;67;1271;-53
2022/08/09 05:22:57;;;;;;;;;;;;;;;;;;2208268;67;1139;-53
2022/08/09 05:25:31;;;;;;;;;;;;;;;;;;2209156;67;1076;-56
2022/08/09 05:28:04;;;;;;;;;;;;;;;;;;2207962;67;1918;-54
2022/08/09 05:30:37;;;;;;;;;;;;;;;;;;2208894;67;1660;-53
2022/08/09 05:33:11;;;;;;;;;;;;;;;;;;2209875;67;1126;-54
2022/08/09 05:35:46;;;;;;;;;;;;;;;;;;2209204;59;1385;-54
2022/08/09 05:38:20;;;;;;;;;;;;;;;;;;2208983;60;1219;-54
2022/08/09 05:40:53;;;;;;;;;;;;;;;;;;2208622;67;1184;-55
2022/08/09 05:43:26;;;;;;;;;;;;;;;;;;2209183;67;1108;-54
2022/08/09 05:45:59;;;;;;;;;;;;;;;;;;2207954;67;1219;-54
2022/08/09 05:48:33;;;;;;;;;;;;;;;;;;2208670;67;1931;-54
2022/08/09 05:51:09;;;;;;;;;;;;;;;;;;2208291;67;1844;-53
2022/08/09 05:53:42;;;;;;;;;;;;;;;;;;2208103;59;1139;-53
2022/08/09 05:56:15;;;;;;;;;;;;;;;;;;2207060;67;1111;-54
2022/08/09 05:58:49;;;;;;;;;;;;;;;;;;2208803;67;1141;-55
2022/08/09 06:01:22;;;;;;;;;;;;;;;;;;2207558;59;1556;-53
2022/08/09 06:03:56;;;;;;;;;;;;;;;;;;2208356;59;1314;-55
2022/08/09 06:06:32;;;;;;;;;;;;;;;;;;2207427;59;1449;-55
2022/08/09 06:09:05;;;;;;;;;;;;;;;;;;2208982;67;2338;-54
2022/08/09 06:11:38;;;;;;;;;;;;;;;;;;2208035;59;1288;-54
2022/08/09 06:14:11;;;;;;;;;;;;;;;;;;2208010;67;1082;-54
2022/08/09 06:16:45;;;;;;;;;;;;;;;;;;2208177;59;1425;-54
2022/08/09 06:19:18;;;;;;;;;;;;;;;;;;2208230;67;1266;-54
2022/08/09 06:21:54;;;;;;;;;;;;;;;;;;2208635;67;1266;-54
2022/08/09 06:24:27;;;;;;;;;;;;;;;;;;2207413;67;1226;-54
2022/08/09 06:27:00;;;;;;;;;;;;;;;;;;2208780;67;1266;-54
2022/08/09 06:29:33;;;;;;;;;;;;;;;;;;2207531;67;1941;-54
2022/08/09 06:32:07;;;;;;;;;;;;;;;;;;2207329;67;1078;-54
2022/08/09 06:34:40;;;;;;;;;;;;;;;;;;2207308;67;1106;-55
2022/08/09 06:37:16;;;;;;;;;;;;;;;;;;2208073;59;1376;-54
2022/08/09 06:39:49;;;;;;;;;;;;;;;;;;2207725;67;1170;-55
2022/08/09 06:42:23;;;;;;;;;;;;;;;;;;2206952;67;1125;-56
2022/08/09 06:44:56;;;;;;;;;;;;;;;;;;2207340;67;1319;-54
2022/08/09 06:47:29;;;;;;;;;;;;;;;;;;2207785;67;1940;-55
2022/08/09 06:50:02;;;;;;;;;;;;;;;;;;2207010;67;1184;-53
2022/08/09 06:52:38;;;;;;;;;;;;;;;;;;2207564;67;1106;-55
2022/08/09 06:55:11;;;;;;;;;;;;;;;;;;2207627;67;1367;-55
2022/08/09 06:57:45;;;;;;;;;;;;;;;;;;2207887;67;1143;-54
2022/08/09 07:00:18;;;;;;;;;;;;;;;;;;2207607;67;1260;-55
2022/08/09 07:02:52;;;;;;;;;;;;;;;;;;2207948;59;1582;-57
2022/08/09 07:05:25;;;;;;;;;;;;;;;;;;2207454;59;1367;-54
2022/08/09 07:08:01;;;;;;;;;;;;;;;;;;2208157;67;1904;-55
2022/08/09 07:10:34;;;;;;;;;;;;;;;;;;2207209;67;1268;-57
2022/08/09 07:13:07;;;;;;;;;;;;;;;;;;2207693;67;1245;-55
2022/08/09 07:15:40;;;;;;;;;;;;;;;;;;2207782;59;1383;-57
2022/08/09 07:18:14;;;;;;;;;;;;;;;;;;2207025;67;1128;-54
2022/08/09 07:20:49;;;;;;;;;;;;;;;;;;2206422;67;1607;-55
2022/08/09 07:23:25;;;;;;;;;;;;;;;;;;2208230;67;1201;-54
2022/08/09 07:25:58;;;;;;;;;;;;;;;;;;2206923;67;1241;-57
2022/08/09 07:28:31;;;;;;;;;;;;;;;;;;2207289;59;1949;-54
2022/08/09 07:31:05;;;;;;;;;;;;;;;;;;2208186;67;1189;-56
2022/08/09 07:33:39;;;;;;;;;;;;;;;;;;2207903;67;1142;-55
2022/08/09 07:36:12;;;;;;;;;;;;;;;;;;2207459;67;1447;-55
2022/08/09 07:38:48;;;;;;;;;;;;;;;;;;2207552;67;1218;-56
2022/08/09 07:41:21;;;;;;;;;;;;;;;;;;2207459;67;1273;-55
2022/08/09 07:43:54;;;;;;;;;;;;;;;;;;2207788;67;1136;-58
2022/08/09 07:46:28;;;;;;;;;;;;;;;;;;2207309;67;1181;-55
2022/08/09 07:49:01;;;;;;;;;;;;;;;;;;2208325;67;1958;-56
2022/08/09 07:51:34;;;;;;;;;;;;;;;;;;2207470;67;1235;-55
2022/08/09 07:54:10;;;;;;;;;;;;;;;;;;2208152;67;1793;-56
2022/08/09 07:56:44;;;;;;;;;;;;;;;;;;2207976;67;1110;-54
2022/08/09 07:59:17;;;;;;;;;;;;;;;;;;2207158;67;1221;-55
2022/08/09 08:01:50;;;;;;;;;;;;;;;;;;2207789;59;1641;-57
2022/08/09 08:04:23;;;;;;;;;;;;;;;;;;2207411;59;1235;-57
2022/08/09 08:06:57;;;;;;;;;;;;;;;;;;2206700;67;1683;-56
2022/08/09 08:09:33;;;;;;;;;;;;;;;;;;2207682;67;1974;-55
2022/08/09 08:12:07;;;;;;;;;;;;;;;;;;2207546;59;1259;-55
2022/08/09 08:14:40;;;;;;;;;;;;;;;;;;2207533;67;1166;-55
2022/08/09 08:17:13;;;;;;;;;;;;;;;;;;2207822;67;1278;-54
2022/08/09 08:19:46;;;;;;;;;;;;;;;;;;2208158;59;1310;-55
2022/08/09 08:22:19;;;;;;;;;;;;;;;;;;2207760;67;1091;-56
2022/08/09 08:24:57;;;;;;;;;;;;;;;;;;2208067;67;1302;-55
2022/08/09 08:27:30;;;;;;;;;;;;;;;;;;2207959;67;1031;-56
2022/08/09 08:30:03;;;;;;;;;;;;;;;;;;2207889;67;1940;-56
2022/08/09 08:32:36;;;;;;;;;;;;;;;;;;2207575;67;1122;-55
2022/08/09 08:35:10;;;;;;;;;;;;;;;;;;2207464;67;1271;-55
2022/08/09 08:37:43;;;;;;;;;;;;;;;;;;2207539;59;1627;-54
2022/08/09 08:40:19;;;;;;;;;;;;;;;;;;2208027;67;1255;-55
2022/08/09 08:42:54;;;;;;;;;;;;;;;;;;2208000;67;1143;-55
2022/08/09 08:45:29;;;;;;;;;;;;;;;;;;2207720;67;1189;-55
2022/08/09 08:48:02;;;;;;;;;;;;;;;;;;2207427;67;1242;-56
2022/08/09 08:50:35;;;;;;;;;;;;;;;;;;2207473;67;1935;-58
2022/08/09 08:53:09;;;;;;;;;;;;;;;;;;2208956;67;1086;-55
2022/08/09 08:55:45;;;;;;;;;;;;;;;;;;2208956;67;1150;-54
2022/08/09 08:58:18;;;;;;;;;;;;;;;;;;2207981;67;1263;-55
2022/08/09 09:00:52;;;;;;;;;;;;;;;;;;2207995;67;1267;-55
2022/08/09 09:03:26;;;;;;;;;;;;;;;;;;2208476;59;1718;-55
2022/08/09 09:06:00;;;;;;;;;;;;;;;;;;2208272;67;1159;-54
2022/08/09 09:08:36;;;;;;;;;;;;;;;;;;2208278;67;1933;-56
2022/08/09 09:11:12;;;;;;;;;;;;;;;;;;2207507;59;1245;-55
2022/08/09 09:13:46;;;;;;;;;;;;;;;;;;2208211;67;1223;-57
2022/08/09 09:16:20;;;;;;;;;;;;;;;;;;2207605;59;1413;-55
2022/08/09 09:18:55;;;;;;;;;;;;;;;;;;2208744;67;1132;-63
2022/08/09 09:21:28;;;;;;;;;;;;;;;;;;2208222;67;1739;-58
2022/08/09 09:24:05;;;;;;;;;;;;;;;;;;2208806;67;1318;-55
2022/08/09 09:26:41;;;;;;;;;;;;;;;;;;2208321;67;1235;-56
2022/08/09 09:29:14;;;;;;;;;;;;;;;;;;2208537;67;1936;-57
2022/08/09 09:31:51;;;;;;;;;;;;;;;;;;2207817;67;1222;-56
2022/08/09 09:34:24;;;;;;;;;;;;;;;;;;2208331;67;1134;-54
2022/08/09 09:36:58;;;;;;;;;;;;;;;;;;2207643;59;1367;-55
2022/08/09 09:39:32;;;;;;;;;;;;;;;;;;2207582;67;1351;-56
2022/08/09 09:42:08;;;;;;;;;;;;;;;;;;2207764;67;1183;-55
2022/08/09 09:44:42;;;;;;;;;;;;;;;;;;2207590;67;1752;-56
2022/08/09 09:47:17;;;;;;;;;;;;;;;;;;2207532;67;1180;-56
2022/08/09 09:49:52;;;;;;;;;;;;;;;;;;2207823;67;1936;-57
2022/08/09 09:52:26;;;;;;;;;;;;;;;;;;2208323;67;1120;-56
2022/08/09 09:55:02;;;;;;;;;;;;;;;;;;2208436;67;1207;-55
2022/08/09 09:57:38;;;;;;;;;;;;;;;;;;2207780;67;1183;-56
2022/08/09 10:00:23;;;;;;;;;;;;;;;;;;2207347;67;1310;-57
2022/08/09 10:02:56;;;;;;;;;;;;;;;;;;2207896;59;1604;-55
2022/08/09 10:05:30;;;;;;;;;;;;;;;;;;2208750;59;1276;-55
2022/08/09 10:08:06;;;;;;;;;;;;;;;;;;2209889;67;1194;-58
2022/08/09 10:10:39;;;;;;;;;;;;;;;;;;2208982;59;1988;-56
2022/08/09 10:13:16;;;;;;;;;;;;;;;;;;2207959;67;1179;-56
2022/08/09 10:15:51;;;;;;;;;;;;;;;;;;2208570;59;1305;-62
2022/08/09 10:18:24;;;;;;;;;;;;;;;;;;2207779;67;1435;-57
2022/08/09 10:21:06;;;;;;;;;;;;;;;;;;2208570;67;1282;-54
2022/08/09 10:23:39;;;;;;;;;;;;;;;;;;2209685;67;1150;-56
2022/08/09 10:26:13;;;;;;;;;;;;;;;;;;2207978;67;1985;-56
2022/08/09 10:28:49;;;;;;;;;;;;;;;;;;2209882;67;1151;-55
2022/08/09 10:31:23;;;;;;;;;;;;;;;;;;2208439;67;1258;-56
2022/08/09 10:33:56;;;;;;;;;;;;;;;;;;2208814;67;1253;-55
2022/08/09 10:36:29;;;;;;;;;;;;;;;;;;2207872;59;1352;-55
2022/08/09 10:39:03;;;;;;;;;;;;;;;;;;2207705;67;1142;-55
2022/08/09 10:41:37;;;;;;;;;;;;;;;;;;2207974;67;1481;-58
2022/08/09 10:44:13;;;;;;;;;;;;;;;;;;2207498;67;1189;-55
2022/08/09 10:46:52;;;;;;;;;;;;;;;;;;2208338;67;1223;-55
2022/08/09 10:49:32;;;;;;;;;;;;;;;;;;2207628;67;1933;-57
2022/08/09 10:52:10;;;;;;;;;;;;;;;;;;2209214;67;1159;-55
2022/08/09 10:54:43;;;;;;;;;;;;;;;;;;2207935;60;1239;-55
2022/08/09 10:57:16;;;;;;;;;;;;;;;;;;2207768;67;1187;-55
2022/08/09 10:59:52;;;;;;;;;;;;;;;;;;2207452;67;1994;-59
2022/08/09 11:02:37;;;;;;;;;;;;;;;;;;2208109;59;1681;-55
2022/08/09 11:05:18;;;;;;;;;;;;;;;;;;2207292;59;1421;-57
2022/08/09 11:07:51;;;;;;;;;;;;;;;;;;2208379;67;1200;-55
2022/08/09 11:10:42;;;;;;;;;;;;;;;;;;2208299;67;1979;-56
2022/08/09 11:13:16;;;;;;;;;;;;;;;;;;2208797;67;1430;-55
2022/08/09 11:15:52;;;;;;;;;;;;;;;;;;2208946;59;1380;-58
2022/08/09 11:18:44;;;;;;;;;;;;;;;;;;2208819;67;1226;-58
2022/08/09 11:21:32;;;;;;;;;;;;;;;;;;2208259;67;1324;-57
2022/08/09 11:24:06;;;;;;;;;;;;;;;;;;2208217;67;1426;-57
2022/08/09 11:26:43;;;;;;;;;;;;;;;;;;2209927;59;1117;-55
2022/08/09 11:29:31;;;;;;;;;;;;;;;;;;2208081;67;1939;-58
2022/08/09 11:32:09;;;;;;;;;;;;;;;;;;2208274;67;1708;-57
2022/08/09 11:34:45;;;;;;;;;;;;;;;;;;2209458;59;1169;-56
2022/08/09 11:37:27;;;;;;;;;;;;;;;;;;2208401;59;1378;-55
2022/08/09 11:40:03;;;;;;;;;;;;;;;;;;2209294;59;1200;-55
2022/08/09 11:42:42;;;;;;;;;;;;;;;;;;2208888;67;1117;-58
2022/08/09 11:45:27;;;;;;;;;;;;;;;;;;2209630;67;1245;-55
2022/08/09 11:48:04;;;;;;;;;;;;;;;;;;2208583;67;1311;-56
2022/08/09 11:51:00;;;;;;;;;;;;;;;;;;2207931;67;1996;-55
2022/08/09 11:53:34;;;;;;;;;;;;;;;;;;2209773;67;1343;-55
2022/08/09 11:56:31;;;;;;;;;;;;;;;;;;2207949;67;1185;-55
2022/08/09 11:59:04;;;;;;;;;;;;;;;;;;2206414;67;2333;-57
2022/08/09 12:01:38;;;;;;;;;;;;;;;;;;2208766;59;1521;-55
2022/08/09 12:04:15;;;;;;;;;;;;;;;;;;2208875;59;1668;-55
2022/08/09 12:06:52;;;;;;;;;;;;;;;;;;2209141;59;1691;-56
2022/08/09 12:09:27;;;;;;;;;;;;;;;;;;2313581;53;2109;-77
2022/08/09 12:12:04;;;;;;;;;;;;;;;;;;2210939;59;1246;-77
2022/08/09 12:14:37;;;;;;;;;;;;;;;;;;2212621;59;1125;-76
2022/08/09 12:17:14;;;;;;;;;;;;;;;;;;2212362;59;1651;-77
2022/08/09 12:19:49;;;;;;;;;;;;;;;;;;2212974;66;1198;-76
2022/08/09 12:22:23;;;;;;;;;;;;;;;;;;2214476;66;1077;-77
2022/08/09 13:19:30;;;;;;;;;;;;;;;;;;2276864;58;2366;-55
2022/08/09 13:22:11;;;;;;;;;;;;;;;;;;2216905;66;1226;-55
2022/08/09 13:24:45;;;;;;;;;;;;;;;;;;2216379;59;1121;-56
2022/08/09 13:27:31;;;;;;;;;;;;;;;;;;2217260;59;1257;-55
2022/08/09 13:30:06;;;;;;;;;;;;;;;;;;2217713;66;1935;-53
2022/08/09 13:32:46;;;;;;;;;;;;;;;;;;2218529;58;2142;-55
2022/08/09 13:35:23;;;;;;;;;;;;;;;;;;2218160;58;1213;-55
2022/08/09 13:37:58;;;;;;;;;;;;;;;;;;2218951;66;1246;-56
2022/08/09 13:40:31;;;;;;;;;;;;;;;;;;2218061;66;1107;-57
2022/08/09 13:43:04;;;;;;;;;;;;;;;;;;2218260;66;1170;-55
2022/08/09 13:45:37;;;;;;;;;;;;;;;;;;2218040;66;1154;-59
2022/08/09 13:48:10;;;;;;;;;;;;;;;;;;2217855;66;1249;-55
2022/08/09 13:50:46;;;;;;;;;;;;;;;;;;2217707;66;1972;-55
2022/08/09 13:53:20;;;;;;;;;;;;;;;;;;2218036;66;1153;-56
2022/08/09 13:55:53;;;;;;;;;;;;;;;;;;2218127;66;1114;-55
2022/08/09 13:58:26;;;;;;;;;;;;;;;;;;2217876;66;1232;-56
2022/08/09 14:00:59;;;;;;;;;;;;;;;;;;2217600;66;1261;-56
2022/08/09 14:03:32;;;;;;;;;;;;;;;;;;2218229;58;1876;-56
2022/08/09 14:06:13;;;;;;;;;;;;;;;;;;2217249;66;1165;-55
2022/08/09 14:08:47;;;;;;;;;;;;;;;;;;2217673;66;1244;-55
2022/08/09 14:11:20;;;;;;;;;;;;;;;;;;2218168;58;1937;-56
2022/08/09 14:13:53;;;;;;;;;;;;;;;;;;2217711;66;1190;-57
2022/08/09 14:16:27;;;;;;;;;;;;;;;;;;2217998;58;2020;-55
2022/08/09 14:19:00;;;;;;;;;;;;;;;;;;2217994;58;1248;-55
2022/08/09 14:21:36;;;;;;;;;;;;;;;;;;2217743;66;1193;-57
2022/08/09 14:24:09;;;;;;;;;;;;;;;;;;2218295;66;1234;-54
2022/08/09 14:26:43;;;;;;;;;;;;;;;;;;2217710;66;1303;-55
2022/08/09 14:29:17;;;;;;;;;;;;;;;;;;2217731;66;1215;-55
2022/08/09 14:31:50;;;;;;;;;;;;;;;;;;2217511;58;1932;-55
2022/08/09 14:34:23;;;;;;;;;;;;;;;;;;2218054;66;1566;-55
2022/08/09 14:36:59;;;;;;;;;;;;;;;;;;2218044;58;1432;-55
2022/08/09 14:39:33;;;;;;;;;;;;;;;;;;2217649;66;1333;-56
2022/08/09 14:42:06;;;;;;;;;;;;;;;;;;2217356;66;1203;-56
2022/08/09 14:44:40;;;;;;;;;;;;;;;;;;2217786;66;1226;-55
2022/08/09 14:47:13;;;;;;;;;;;;;;;;;;2218306;66;1118;-56
2022/08/09 14:49:46;;;;;;;;;;;;;;;;;;2217449;66;1279;-55
2022/08/09 14:52:22;;;;;;;;;;;;;;;;;;2218220;66;1904;-54
2022/08/09 14:54:55;;;;;;;;;;;;;;;;;;2217785;58;1220;-55
2022/08/09 14:57:29;;;;;;;;;;;;;;;;;;2218108;66;1206;-55
2022/08/09 15:00:02;;;;;;;;;;;;;;;;;;2217986;66;1178;-55
2022/08/09 15:02:35;;;;;;;;;;;;;;;;;;2217219;58;1719;-56
2022/08/09 15:05:09;;;;;;;;;;;;;;;;;;2218249;66;1170;-58
2022/08/09 15:07:45;;;;;;;;;;;;;;;;;;2217692;66;1150;-54
2022/08/09 15:10:18;;;;;;;;;;;;;;;;;;2217710;66;1939;-55
2022/08/09 15:12:51;;;;;;;;;;;;;;;;;;2217859;58;1273;-55
2022/08/09 15:15:25;;;;;;;;;;;;;;;;;;2218030;58;1492;-58
2022/08/09 15:17:59;;;;;;;;;;;;;;;;;;2218227;58;1195;-55
2022/08/09 15:20:32;;;;;;;;;;;;;;;;;;2217614;66;1269;-56
2022/08/09 15:23:08;;;;;;;;;;;;;;;;;;2217303;66;1229;-55
2022/08/09 15:25:42;;;;;;;;;;;;;;;;;;2218225;66;1140;-56
2022/08/09 15:28:15;;;;;;;;;;;;;;;;;;2217955;66;1208;-56
2022/08/09 15:30:48;;;;;;;;;;;;;;;;;;2217920;66;1902;-55
2022/08/09 15:33:21;;;;;;;;;;;;;;;;;;2218202;66;1232;-55
2022/08/09 15:35:55;;;;;;;;;;;;;;;;;;2217659;66;1397;-55
2022/08/09 15:38:32;;;;;;;;;;;;;;;;;;2217338;66;1212;-55
2022/08/09 15:41:05;;;;;;;;;;;;;;;;;;2217746;66;1026;-56
2022/08/09 15:43:39;;;;;;;;;;;;;;;;;;2218116;66;1149;-56
2022/08/09 15:46:12;;;;;;;;;;;;;;;;;;2217998;66;1208;-55
2022/08/09 15:48:46;;;;;;;;;;;;;;;;;;2217418;66;1293;-55
2022/08/09 15:51:19;;;;;;;;;;;;;;;;;;2217663;66;1931;-56
2022/08/09 15:53:56;;;;;;;;;;;;;;;;;;2217866;66;1206;-54
2022/08/09 15:56:29;;;;;;;;;;;;;;;;;;2217857;66;1130;-57
2022/08/09 15:59:02;;;;;;;;;;;;;;;;;;2217233;66;1289;-57
2022/08/09 16:01:37;;;;;;;;;;;;;;;;;;2217105;58;1962;-55
2022/08/09 16:04:10;;;;;;;;;;;;;;;;;;2219125;58;1346;-55
2022/08/09 16:06:44;;;;;;;;;;;;;;;;;;2218470;58;1250;-55
2022/08/09 16:09:19;;;;;;;;;;;;;;;;;;2218375;66;1217;-55
2022/08/09 16:11:53;;;;;;;;;;;;;;;;;;2218610;58;1986;-55
2022/08/09 16:14:26;;;;;;;;;;;;;;;;;;2218624;66;1246;-57
2022/08/09 16:17:00;;;;;;;;;;;;;;;;;;2218582;58;1361;-55
2022/08/09 16:19:33;;;;;;;;;;;;;;;;;;2217849;59;1284;-55
2022/08/09 16:22:06;;;;;;;;;;;;;;;;;;2217880;66;1251;-55
2022/08/09 16:24:42;;;;;;;;;;;;;;;;;;2218253;66;1189;-55
2022/08/09 16:27:15;;;;;;;;;;;;;;;;;;2218344;66;1199;-55
2022/08/09 16:29:48;;;;;;;;;;;;;;;;;;2218460;66;1302;-55
2022/08/09 16:32:21;;;;;;;;;;;;;;;;;;2217972;66;1941;-55
2022/08/09 16:34:55;;;;;;;;;;;;;;;;;;2217802;66;1265;-55
2022/08/09 16:37:28;;;;;;;;;;;;;;;;;;2218012;58;1428;-55
2022/08/09 16:40:04;;;;;;;;;;;;;;;;;;2217996;66;1275;-57
2022/08/09 16:42:37;;;;;;;;;;;;;;;;;;2217797;66;1119;-55
2022/08/09 16:45:11;;;;;;;;;;;;;;;;;;2218305;66;1209;-55
2022/08/09 16:47:44;;;;;;;;;;;;;;;;;;2217799;58;1230;-55
2022/08/09 16:50:18;;;;;;;;;;;;;;;;;;2218326;66;1209;-55
2022/08/09 16:52:51;;;;;;;;;;;;;;;;;;2217803;66;1979;-55
2022/08/09 16:55:27;;;;;;;;;;;;;;;;;;2217949;66;1299;-54
2022/08/09 16:58:00;;;;;;;;;;;;;;;;;;2217626;66;1297;-56
2022/08/09 17:00:34;;;;;;;;;;;;;;;;;;2217556;66;1005;-56
2022/08/09 17:03:07;;;;;;;;;;;;;;;;;;2218103;58;2199;-55
2022/08/09 17:05:40;;;;;;;;;;;;;;;;;;2218068;58;1427;-55
2022/08/09 17:08:13;;;;;;;;;;;;;;;;;;2218585;66;1270;-55
2022/08/09 17:10:49;;;;;;;;;;;;;;;;;;2217654;58;1301;-56
2022/08/09 17:13:22;;;;;;;;;;;;;;;;;;2218273;66;1987;-55
2022/08/09 17:15:55;;;;;;;;;;;;;;;;;;2217845;66;1589;-56
2022/08/09 17:18:29;;;;;;;;;;;;;;;;;;2218094;58;1250;-56
2022/08/09 17:21:02;;;;;;;;;;;;;;;;;;2218143;66;1198;-56
2022/08/09 17:23:36;;;;;;;;;;;;;;;;;;2218160;66;1114;-56
2022/08/09 17:26:12;;;;;;;;;;;;;;;;;;2219291;66;1186;-54
2022/08/09 17:28:45;;;;;;;;;;;;;;;;;;2218652;66;1278;-54
2022/08/09 17:31:18;;;;;;;;;;;;;;;;;;2218446;66;1927;-56
2022/08/09 17:33:51;;;;;;;;;;;;;;;;;;2218381;66;1213;-56
2022/08/09 17:36:25;;;;;;;;;;;;;;;;;;2218342;58;1428;-54
2022/08/09 17:38:58;;;;;;;;;;;;;;;;;;2218118;66;1275;-56
2022/08/09 17:41:34;;;;;;;;;;;;;;;;;;2218255;66;1239;-54
2022/08/09 17:44:07;;;;;;;;;;;;;;;;;;2219110;66;1336;-55
2022/08/09 17:46:40;;;;;;;;;;;;;;;;;;2218061;66;1213;-55
2022/08/09 17:49:13;;;;;;;;;;;;;;;;;;2218415;66;1306;-55
2022/08/09 17:51:46;;;;;;;;;;;;;;;;;;2218071;66;1927;-55
2022/08/09 17:54:19;;;;;;;;;;;;;;;;;;2217543;66;1068;-55
2022/08/09 17:56:55;;;;;;;;;;;;;;;;;;2217996;59;1113;-54
2022/08/09 17:59:28;;;;;;;;;;;;;;;;;;2217885;66;1219;-55
2022/08/09 18:02:02;;;;;;;;;;;;;;;;;;2217258;58;1727;-55
2022/08/09 18:04:35;;;;;;;;;;;;;;;;;;2218154;58;1254;-55
2022/08/09 18:07:08;;;;;;;;;;;;;;;;;;2218496;58;1479;-57
2022/08/09 18:09:42;;;;;;;;;;;;;;;;;;2217890;66;1251;-55
2022/08/09 18:12:18;;;;;;;;;;;;;;;;;;2218384;58;1980;-57
2022/08/09 18:14:51;;;;;;;;;;;;;;;;;;2217950;66;1105;-54
2022/08/09 18:17:25;;;;;;;;;;;;;;;;;;2217891;58;1694;-56
2022/08/09 18:19:58;;;;;;;;;;;;;;;;;;2217990;58;1283;-56
2022/08/09 18:22:32;;;;;;;;;;;;;;;;;;2217543;66;1075;-55
2022/08/09 18:25:05;;;;;;;;;;;;;;;;;;2218382;66;1245;-55
2022/08/09 18:27:42;;;;;;;;;;;;;;;;;;2218164;66;1096;-55
2022/08/09 18:30:16;;;;;;;;;;;;;;;;;;2218134;66;1242;-55
2022/08/09 18:32:49;;;;;;;;;;;;;;;;;;2217615;66;1984;-55
2022/08/09 18:35:22;;;;;;;;;;;;;;;;;;2218036;66;1227;-56
2022/08/09 18:37:55;;;;;;;;;;;;;;;;;;2217732;66;1313;-55
2022/08/09 18:40:28;;;;;;;;;;;;;;;;;;2217644;66;1104;-55
2022/08/09 18:43:04;;;;;;;;;;;;;;;;;;2217759;66;1233;-55
2022/08/09 18:45:37;;;;;;;;;;;;;;;;;;2217401;66;1154;-55
2022/08/09 18:48:11;;;;;;;;;;;;;;;;;;2217252;66;1203;-57